createdAt,value
2023-03-19T00:00:09.870Z,77.23
2023-03-19T00:00:55.204Z,77.23
2023-03-19T00:01:40.186Z,73.27
2023-03-19T00:02:25.063Z,75.25
2023-03-19T00:03:10.178Z,75.25
2023-03-19T00:03:55.050Z,78.22
2023-03-19T00:04:40.208Z,76.24
2023-03-19T00:05:25.524Z,77.23
2023-03-19T00:06:10.434Z,77.23
2023-03-19T00:06:55.375Z,76.24
2023-03-19T00:07:40.006Z,76.24
2023-03-19T00:08:25.290Z,75.25
2023-03-19T00:09:10.976Z,75.25
2023-03-19T00:09:55.504Z,76.24
2023-03-19T00:10:41.135Z,76.24
2023-03-19T00:11:25.718Z,77.23
2023-03-19T00:12:10.806Z,77.23
2023-03-19T00:12:55.640Z,78.22
2023-03-19T00:13:41.548Z,79.21
2023-03-19T00:14:25.975Z,78.22
2023-03-19T00:15:10.894Z,78.22
2023-03-19T00:15:55.646Z,77.02
2023-03-19T00:16:41.527Z,77.23
2023-03-19T00:17:26.298Z,77.23
2023-03-19T00:18:11.452Z,78.22
2023-03-19T00:18:56.078Z,74.26
2023-03-19T00:19:41.490Z,77.23
2023-03-19T00:20:27.102Z,77.23
2023-03-19T00:21:11.262Z,77.23
2023-03-19T00:21:56.657Z,77.23
2023-03-19T00:22:41.752Z,78.22
2023-03-19T00:23:26.643Z,78.22
2023-03-19T00:24:11.678Z,78.22
2023-03-19T00:24:56.748Z,77.23
2023-03-19T00:25:42.180Z,79.21
2023-03-19T00:26:26.764Z,77.23
2023-03-19T00:27:11.730Z,78.01
2023-03-19T00:27:56.863Z,77.23
2023-03-19T00:28:41.819Z,77.23
2023-03-19T00:29:27.177Z,79.21
2023-03-19T00:30:12.057Z,79.21
2023-03-19T00:30:57.241Z,77.23
2023-03-19T00:31:42.364Z,77.23
2023-03-19T00:32:27.467Z,79.21
2023-03-19T00:33:12.276Z,78.22
2023-03-19T00:33:57.494Z,77.23
2023-03-19T00:34:42.611Z,77.23
2023-03-19T00:35:27.916Z,74.26
2023-03-19T00:36:12.550Z,77.23
2023-03-19T00:36:58.157Z,76.24
2023-03-19T00:37:42.692Z,76.24
2023-03-19T00:38:27.839Z,76.24
2023-03-19T00:39:12.807Z,74.26
2023-03-19T00:39:57.972Z,74.26
2023-03-19T00:40:42.709Z,75.25
2023-03-19T00:41:27.876Z,76.24
2023-03-19T00:42:12.844Z,78.22
2023-03-19T00:42:58.355Z,78.22
2023-03-19T00:43:43.247Z,79.21
2023-03-19T00:44:28.289Z,80.20
2023-03-19T00:45:13.259Z,82.18
2023-03-19T00:45:58.275Z,80.20
2023-03-19T00:46:42.931Z,81.19
2023-03-19T00:47:28.528Z,76.24
2023-03-19T00:48:13.634Z,75.25
2023-03-19T00:48:58.363Z,75.25
2023-03-19T00:49:43.599Z,77.23
2023-03-19T00:50:29.611Z,77.23
2023-03-19T00:51:14.000Z,79.21
2023-03-19T00:51:58.990Z,74.26
2023-03-19T00:52:44.241Z,73.27
2023-03-19T00:53:28.987Z,69.31
2023-03-19T00:54:14.032Z,72.28
2023-03-19T00:54:58.987Z,72.08
2023-03-19T00:55:44.310Z,64.36
2023-03-19T00:56:29.058Z,62.21
2023-03-19T00:57:14.357Z,62.38
2023-03-19T00:57:58.751Z,64.36
2023-03-19T00:58:44.270Z,64.36
2023-03-19T00:59:29.406Z,64.36
2023-03-19T01:00:59.074Z,62.38
2023-03-19T01:01:44.287Z,60.40
2023-03-19T01:02:29.246Z,61.39
2023-03-19T01:03:14.097Z,63.20
2023-03-19T01:03:59.291Z,60.40
2023-03-19T01:04:44.590Z,60.40
2023-03-19T01:05:29.775Z,61.39
2023-03-19T01:06:14.321Z,61.22
2023-03-19T01:07:44.361Z,73.27
2023-03-19T01:08:29.829Z,73.07
2023-03-19T01:09:14.647Z,81.19
2023-03-19T01:09:59.912Z,94.80
2023-03-19T01:10:44.865Z,100.99
2023-03-19T01:11:29.856Z,101.98
2023-03-19T01:12:15.297Z,100.00
2023-03-19T01:12:59.879Z,101.98
2023-03-19T01:13:45.431Z,102.97
2023-03-19T01:14:30.120Z,99.01
2023-03-19T01:15:15.007Z,102.70
2023-03-19T01:16:00.795Z,98.02
2023-03-19T01:16:45.382Z,101.98
2023-03-19T01:17:30.074Z,102.97
2023-03-19T01:18:15.038Z,104.95
2023-03-19T01:19:00.145Z,101.98
2023-03-19T01:19:45.451Z,103.96
2023-03-19T01:20:30.674Z,102.97
2023-03-19T01:21:14.948Z,103.96
2023-03-19T01:22:00.433Z,98.75
2023-03-19T01:22:45.567Z,103.96
2023-03-19T01:23:30.310Z,100.72
2023-03-19T01:24:15.744Z,101.98
2023-03-19T01:25:00.535Z,100.00
2023-03-19T01:25:45.794Z,101.98
2023-03-19T01:26:30.438Z,98.02
2023-03-19T01:27:15.720Z,101.98
2023-03-19T01:28:00.920Z,101.98
2023-03-19T01:28:46.642Z,101.98
2023-03-19T01:29:30.768Z,103.96
2023-03-19T01:30:15.944Z,104.95
2023-03-19T01:31:01.295Z,101.98
2023-03-19T01:31:46.067Z,103.96
2023-03-19T01:32:31.313Z,100.99
2023-03-19T01:33:16.254Z,101.98
2023-03-19T01:34:01.124Z,104.95
2023-03-19T01:34:46.440Z,104.95
2023-03-19T01:35:31.537Z,104.95
2023-03-19T01:36:16.384Z,104.95
2023-03-19T01:37:01.128Z,103.96
2023-03-19T01:37:46.508Z,103.96
2023-03-19T01:38:31.663Z,101.98
2023-03-19T01:39:16.495Z,102.97
2023-03-19T01:40:01.672Z,100.00
2023-03-19T01:40:47.161Z,105.94
2023-03-19T01:41:32.071Z,101.98
2023-03-19T01:42:16.993Z,103.96
2023-03-19T01:43:02.089Z,101.98
2023-03-19T01:43:47.842Z,103.68
2023-03-19T01:44:32.501Z,106.93
2023-03-19T01:45:17.261Z,106.93
2023-03-19T01:46:02.428Z,105.94
2023-03-19T01:46:47.437Z,104.95
2023-03-19T01:47:32.313Z,100.99
2023-03-19T01:48:17.241Z,103.96
2023-03-19T01:49:02.503Z,104.95
2023-03-19T01:49:48.432Z,107.92
2023-03-19T01:50:32.597Z,106.64
2023-03-19T01:51:17.639Z,108.91
2023-03-19T01:52:02.695Z,105.94
2023-03-19T01:52:47.977Z,107.92
2023-03-19T01:53:33.038Z,106.93
2023-03-19T01:54:17.586Z,107.92
2023-03-19T01:55:03.023Z,100.99
2023-03-19T01:55:47.984Z,102.97
2023-03-19T01:56:33.624Z,100.00
2023-03-19T01:57:18.053Z,103.96
2023-03-19T01:58:03.013Z,101.98
2023-03-19T01:58:48.064Z,101.98
2023-03-19T01:59:33.440Z,103.96
2023-03-19T02:00:18.436Z,105.66
2023-03-19T02:01:03.258Z,103.96
2023-03-19T02:01:48.736Z,103.96
2023-03-19T02:02:33.646Z,106.93
2023-03-19T02:03:19.062Z,106.64
2023-03-19T02:04:03.492Z,102.97
2023-03-19T02:04:48.677Z,105.94
2023-03-19T02:05:33.570Z,103.96
2023-03-19T02:06:18.864Z,103.96
2023-03-19T02:07:03.989Z,97.03
2023-03-19T02:07:49.092Z,100.00
2023-03-19T02:08:34.027Z,102.70
2023-03-19T02:09:18.797Z,102.97
2023-03-19T02:10:03.809Z,98.02
2023-03-19T02:10:49.065Z,101.98
2023-03-19T02:11:34.380Z,101.71
2023-03-19T02:12:18.991Z,102.97
2023-03-19T02:13:04.156Z,95.05
2023-03-19T02:13:48.980Z,99.01
2023-03-19T02:14:34.452Z,98.02
2023-03-19T02:15:19.402Z,98.02
2023-03-19T02:16:04.156Z,96.04
2023-03-19T02:16:49.384Z,99.01
2023-03-19T02:17:34.167Z,96.04
2023-03-19T02:18:19.606Z,100.00
2023-03-19T02:19:04.274Z,94.06
2023-03-19T02:19:49.406Z,101.98
2023-03-19T02:20:34.911Z,101.98
2023-03-19T02:21:20.068Z,102.97
2023-03-19T02:22:04.514Z,101.98
2023-03-19T02:22:49.863Z,102.97
2023-03-19T02:23:34.864Z,106.64
2023-03-19T02:24:19.728Z,105.94
2023-03-19T02:25:04.899Z,107.92
2023-03-19T02:25:49.792Z,106.93
2023-03-19T02:26:35.118Z,105.94
2023-03-19T02:27:20.219Z,104.95
2023-03-19T02:28:05.057Z,101.71
2023-03-19T02:28:50.022Z,102.97
2023-03-19T02:29:35.499Z,104.95
2023-03-19T02:30:20.595Z,105.94
2023-03-19T02:31:05.403Z,105.94
2023-03-19T02:31:50.302Z,100.99
2023-03-19T02:32:35.642Z,100.99
2023-03-19T02:33:20.630Z,101.98
2023-03-19T02:34:05.243Z,102.97
2023-03-19T02:34:50.562Z,101.98
2023-03-19T02:35:35.758Z,96.77
2023-03-19T02:36:20.743Z,100.00
2023-03-19T02:37:05.725Z,95.05
2023-03-19T02:37:51.089Z,97.03
2023-03-19T02:38:35.940Z,98.02
2023-03-19T02:39:21.010Z,99.01
2023-03-19T02:40:06.078Z,96.04
2023-03-19T02:40:50.913Z,97.03
2023-03-19T02:41:36.293Z,99.01
2023-03-19T02:42:21.256Z,97.03
2023-03-19T02:43:06.051Z,91.09
2023-03-19T02:43:51.474Z,93.07
2023-03-19T02:44:36.705Z,98.02
2023-03-19T02:45:21.899Z,96.04
2023-03-19T02:46:06.780Z,91.09
2023-03-19T02:46:51.574Z,94.06
2023-03-19T02:47:36.979Z,94.06
2023-03-19T02:48:21.579Z,92.08
2023-03-19T02:49:06.541Z,95.05
2023-03-19T02:49:51.450Z,97.03
2023-03-19T02:50:37.465Z,98.02
2023-03-19T02:51:21.801Z,100.00
2023-03-19T02:52:06.759Z,99.73
2023-03-19T02:52:51.914Z,100.00
2023-03-19T02:53:36.876Z,101.71
2023-03-19T02:54:21.542Z,100.99
2023-03-19T02:55:06.839Z,102.97
2023-03-19T02:55:52.183Z,100.99
2023-03-19T02:56:37.027Z,101.71
2023-03-19T02:57:22.212Z,100.00
2023-03-19T02:58:07.001Z,100.99
2023-03-19T02:58:52.215Z,100.00
2023-03-19T02:59:37.014Z,97.03
2023-03-19T03:00:22.270Z,98.02
2023-03-19T03:01:07.203Z,98.02
2023-03-19T03:01:52.292Z,101.98
2023-03-19T03:02:37.425Z,103.68
2023-03-19T03:03:22.819Z,101.98
2023-03-19T03:04:07.760Z,101.98
2023-03-19T03:04:52.500Z,100.99
2023-03-19T03:05:37.849Z,100.99
2023-03-19T03:06:22.811Z,102.97
2023-03-19T03:07:08.408Z,101.71
2023-03-19T03:07:52.843Z,99.73
2023-03-19T03:08:37.673Z,99.73
2023-03-19T03:09:22.830Z,98.02
2023-03-19T03:10:09.299Z,98.02
2023-03-19T03:10:53.090Z,98.02
2023-03-19T03:11:38.026Z,99.01
2023-03-19T03:12:22.986Z,104.95
2023-03-19T03:13:08.252Z,103.96
2023-03-19T03:13:53.093Z,103.96
2023-03-19T03:14:38.244Z,104.67
2023-03-19T03:15:24.228Z,100.99
2023-03-19T03:16:08.498Z,100.00
2023-03-19T03:16:53.419Z,103.68
2023-03-19T03:17:38.281Z,100.99
2023-03-19T03:18:23.638Z,101.98
2023-03-19T03:19:08.556Z,101.98
2023-03-19T03:19:53.864Z,102.97
2023-03-19T03:20:38.910Z,103.96
2023-03-19T03:21:23.756Z,103.96
2023-03-19T03:22:08.708Z,106.93
2023-03-19T03:22:53.836Z,106.93
2023-03-19T03:23:39.028Z,103.96
2023-03-19T03:24:24.157Z,104.67
2023-03-19T03:25:09.064Z,102.70
2023-03-19T03:25:54.220Z,106.93
2023-03-19T03:26:38.868Z,110.89
2023-03-19T03:27:23.904Z,105.94
2023-03-19T03:28:08.971Z,108.91
2023-03-19T03:28:54.223Z,114.86
2023-03-19T03:29:39.237Z,110.89
2023-03-19T03:30:24.758Z,108.91
2023-03-19T03:31:09.238Z,106.93
2023-03-19T03:31:54.590Z,107.92
2023-03-19T03:32:39.125Z,109.90
2023-03-19T03:33:24.326Z,111.89
2023-03-19T03:34:09.812Z,111.89
2023-03-19T03:34:54.361Z,107.92
2023-03-19T03:35:39.884Z,112.88
2023-03-19T03:36:24.298Z,110.89
2023-03-19T03:37:09.909Z,111.89
2023-03-19T03:37:54.691Z,111.89
2023-03-19T03:38:39.544Z,110.89
2023-03-19T03:39:24.876Z,109.90
2023-03-19T03:40:09.895Z,106.93
2023-03-19T03:40:55.069Z,107.92
2023-03-19T03:41:40.997Z,107.92
2023-03-19T03:42:25.135Z,104.95
2023-03-19T03:43:09.981Z,106.93
2023-03-19T03:43:55.449Z,108.91
2023-03-19T03:44:40.691Z,112.88
2023-03-19T03:45:26.199Z,112.57
2023-03-19T03:46:10.471Z,112.88
2023-03-19T03:46:55.471Z,112.57
2023-03-19T03:47:40.926Z,106.93
2023-03-19T03:48:25.584Z,108.91
2023-03-19T03:49:10.951Z,111.89
2023-03-19T03:49:55.924Z,111.89
2023-03-19T03:50:41.033Z,114.86
2023-03-19T03:51:25.713Z,115.85
2023-03-19T03:52:11.181Z,119.81
2023-03-19T03:52:56.258Z,118.82
2023-03-19T03:53:41.518Z,117.83
2023-03-19T03:54:26.154Z,115.85
2023-03-19T03:55:11.440Z,115.85
2023-03-19T03:55:56.262Z,113.87
2023-03-19T03:56:41.557Z,114.86
2023-03-19T03:57:26.572Z,113.87
2023-03-19T03:58:11.784Z,113.87
2023-03-19T03:58:56.606Z,110.89
2023-03-19T03:59:41.859Z,111.58
2023-03-19T04:00:26.900Z,108.91
2023-03-19T04:01:12.271Z,98.02
2023-03-19T04:01:56.978Z,99.01
2023-03-19T04:02:41.931Z,104.95
2023-03-19T04:03:27.105Z,104.95
2023-03-19T04:04:11.962Z,99.01
2023-03-19T04:04:57.602Z,99.01
2023-03-19T04:05:42.098Z,102.97
2023-03-19T04:06:26.861Z,102.97
2023-03-19T04:07:11.992Z,102.97
2023-03-19T04:07:57.183Z,99.73
2023-03-19T04:08:42.219Z,97.03
2023-03-19T04:09:27.345Z,95.78
2023-03-19T04:10:12.776Z,95.78
2023-03-19T04:10:57.593Z,100.00
2023-03-19T04:11:42.854Z,100.99
2023-03-19T04:12:27.460Z,103.68
2023-03-19T04:13:12.669Z,103.96
2023-03-19T04:13:57.639Z,100.99
2023-03-19T04:14:42.788Z,103.96
2023-03-19T04:15:28.600Z,103.96
2023-03-19T04:16:12.795Z,103.96
2023-03-19T04:16:57.998Z,104.95
2023-03-19T04:17:43.097Z,106.93
2023-03-19T04:18:27.947Z,106.93
2023-03-19T04:19:12.900Z,106.64
2023-03-19T04:19:57.959Z,106.93
2023-03-19T04:20:43.533Z,106.93
2023-03-19T04:21:28.276Z,105.94
2023-03-19T04:22:13.226Z,105.66
2023-03-19T04:22:58.077Z,100.00
2023-03-19T04:23:43.672Z,100.72
2023-03-19T04:24:28.771Z,100.00
2023-03-19T04:25:13.451Z,102.97
2023-03-19T04:25:58.508Z,100.00
2023-03-19T04:26:44.126Z,102.97
2023-03-19T04:27:28.880Z,104.95
2023-03-19T04:28:14.461Z,106.93
2023-03-19T04:28:58.866Z,104.95
2023-03-19T04:29:43.944Z,102.97
2023-03-19T04:30:28.930Z,102.70
2023-03-19T04:31:14.268Z,106.93
2023-03-19T04:31:59.233Z,108.91
2023-03-19T04:32:43.990Z,106.93
2023-03-19T04:33:29.488Z,104.95
2023-03-19T04:34:14.235Z,99.01
2023-03-19T04:34:59.252Z,96.04
2023-03-19T04:35:44.272Z,94.80
2023-03-19T04:36:29.506Z,97.03
2023-03-19T04:37:14.178Z,95.05
2023-03-19T04:37:59.511Z,95.05
2023-03-19T04:38:45.001Z,95.05
2023-03-19T04:39:29.223Z,99.01
2023-03-19T04:40:15.772Z,99.01
2023-03-19T04:40:59.959Z,99.01
2023-03-19T04:41:45.324Z,99.01
2023-03-19T04:42:29.777Z,99.01
2023-03-19T04:43:15.450Z,99.01
2023-03-19T04:43:59.778Z,99.01
2023-03-19T04:44:44.915Z,99.01
2023-03-19T04:45:30.077Z,99.01
2023-03-19T04:46:15.167Z,103.96
2023-03-19T04:47:00.187Z,103.96
2023-03-19T04:47:45.353Z,99.01
2023-03-19T04:48:31.224Z,99.01
2023-03-19T04:49:15.298Z,98.02
2023-03-19T04:50:00.444Z,91.09
2023-03-19T04:50:45.270Z,91.09
2023-03-19T04:51:30.524Z,91.09
2023-03-19T04:52:15.815Z,91.09
2023-03-19T04:53:01.455Z,91.09
2023-03-19T04:53:45.910Z,91.09
2023-03-19T04:54:31.128Z,91.09
2023-03-19T04:55:16.075Z,91.09
2023-03-19T04:56:01.972Z,91.09
2023-03-19T04:56:46.166Z,91.09
2023-03-19T04:57:30.933Z,16.31
2023-03-19T04:58:16.146Z,16.31
2023-03-19T04:59:00.884Z,16.31
2023-03-19T04:59:48.566Z,16.31
2023-03-19T05:00:31.136Z,41.29
2023-03-19T05:01:16.731Z,41.29
2023-03-19T05:02:01.192Z,41.29
2023-03-19T05:02:46.495Z,41.29
2023-03-19T05:03:31.055Z,95.16
2023-03-19T05:04:16.516Z,95.05
2023-03-19T05:05:01.644Z,95.05
2023-03-19T05:05:46.922Z,95.05
2023-03-19T05:06:31.785Z,95.05
2023-03-19T05:07:16.520Z,95.05
2023-03-19T05:08:01.901Z,95.05
2023-03-19T05:08:46.925Z,95.05
2023-03-19T05:09:31.689Z,95.05
2023-03-19T05:10:17.054Z,95.05
2023-03-19T05:11:02.046Z,95.05
2023-03-19T05:11:47.230Z,95.05
2023-03-19T05:12:32.199Z,95.05
2023-03-19T05:13:16.958Z,95.05
2023-03-19T05:14:02.575Z,95.05
2023-03-19T05:14:47.442Z,95.05
2023-03-19T05:15:32.618Z,95.05
2023-03-19T05:16:17.350Z,95.05
2023-03-19T05:17:02.452Z,95.05
2023-03-19T05:17:47.719Z,95.05
2023-03-19T05:18:32.520Z,95.05
2023-03-19T05:19:17.425Z,90.21
2023-03-19T05:20:03.159Z,86.24
2023-03-19T05:20:47.317Z,83.17
2023-03-19T05:21:32.153Z,80.20
2023-03-19T05:22:17.854Z,80.20
2023-03-19T05:23:02.484Z,89.22
2023-03-19T05:23:47.847Z,84.16
2023-03-19T05:24:32.950Z,79.21
2023-03-19T05:25:18.440Z,80.20
2023-03-19T05:26:02.627Z,81.19
2023-03-19T05:26:47.807Z,81.29
2023-03-19T05:27:32.830Z,81.29
2023-03-19T05:28:18.086Z,81.29
2023-03-19T05:29:03.143Z,81.29
2023-03-19T05:29:48.306Z,81.29
2023-03-19T05:30:33.776Z,81.29
2023-03-19T05:31:19.074Z,81.29
2023-03-19T05:32:03.392Z,81.29
2023-03-19T05:32:48.172Z,84.26
2023-03-19T05:33:33.243Z,88.22
2023-03-19T05:34:18.233Z,88.22
2023-03-19T05:35:03.324Z,86.24
2023-03-19T05:35:48.907Z,87.23
2023-03-19T05:36:33.661Z,87.23
2023-03-19T05:37:18.275Z,86.24
2023-03-19T05:38:03.431Z,86.24
2023-03-19T05:38:48.597Z,86.24
2023-03-19T05:39:33.717Z,90.21
2023-03-19T05:40:18.855Z,91.20
2023-03-19T05:41:03.409Z,85.25
2023-03-19T05:41:48.799Z,90.21
2023-03-19T05:42:33.647Z,90.21
2023-03-19T05:43:19.323Z,90.21
2023-03-19T05:44:03.962Z,90.21
2023-03-19T05:44:48.813Z,89.22
2023-03-19T05:45:33.877Z,88.01
2023-03-19T05:46:18.766Z,88.22
2023-03-19T05:47:03.747Z,88.22
2023-03-19T05:47:49.146Z,97.15
2023-03-19T05:48:34.210Z,98.14
2023-03-19T05:49:19.163Z,100.12
2023-03-19T05:50:03.913Z,97.15
2023-03-19T05:50:49.249Z,100.12
2023-03-19T05:51:34.422Z,101.11
2023-03-19T05:52:19.313Z,100.12
2023-03-19T05:53:04.210Z,100.12
2023-03-19T05:53:49.133Z,100.12
2023-03-19T05:54:34.627Z,101.11
2023-03-19T05:55:19.976Z,100.12
2023-03-19T05:56:04.484Z,100.12
2023-03-19T05:56:49.453Z,100.12
2023-03-19T05:57:34.568Z,100.12
2023-03-19T05:58:19.436Z,98.75
2023-03-19T05:59:04.892Z,99.13
2023-03-19T05:59:49.631Z,100.12
2023-03-19T06:00:34.913Z,95.16
2023-03-19T06:01:19.788Z,97.76
2023-03-19T06:02:05.350Z,100.12
2023-03-19T06:02:50.055Z,100.12
2023-03-19T06:03:35.032Z,100.12
2023-03-19T06:04:19.923Z,100.12
2023-03-19T06:05:05.242Z,100.12
2023-03-19T06:05:50.189Z,97.76
2023-03-19T06:06:35.170Z,96.15
2023-03-19T06:07:20.305Z,98.14
2023-03-19T06:08:05.483Z,101.11
2023-03-19T06:08:50.226Z,101.11
2023-03-19T06:09:35.267Z,93.18
2023-03-19T06:10:21.040Z,97.15
2023-03-19T06:11:05.490Z,98.14
2023-03-19T06:11:50.551Z,97.15
2023-03-19T06:12:35.466Z,97.15
2023-03-19T06:13:20.459Z,99.13
2023-03-19T06:14:05.618Z,96.15
2023-03-19T06:14:50.594Z,97.15
2023-03-19T06:15:36.084Z,97.15
2023-03-19T06:16:20.754Z,95.16
2023-03-19T06:17:05.647Z,95.16
2023-03-19T06:17:50.688Z,93.18
2023-03-19T06:18:35.938Z,89.86
2023-03-19T06:19:20.917Z,91.20
2023-03-19T06:20:05.593Z,92.19
2023-03-19T06:20:50.719Z,93.18
2023-03-19T06:21:36.504Z,93.18
2023-03-19T06:22:21.121Z,93.18
2023-03-19T06:23:06.179Z,96.77
2023-03-19T06:23:51.092Z,99.13
2023-03-19T06:24:36.392Z,99.01
2023-03-19T06:25:21.089Z,99.01
2023-03-19T06:26:06.291Z,99.01
2023-03-19T06:26:51.431Z,99.01
2023-03-19T06:27:36.436Z,101.11
2023-03-19T06:28:21.365Z,100.00
2023-03-19T06:29:06.317Z,93.18
2023-03-19T06:29:51.777Z,94.06
2023-03-19T06:30:36.752Z,95.16
2023-03-19T06:31:21.441Z,96.15
2023-03-19T06:32:06.850Z,94.17
2023-03-19T06:32:51.989Z,98.14
2023-03-19T06:33:37.308Z,95.16
2023-03-19T06:34:21.615Z,94.17
2023-03-19T06:35:06.968Z,89.22
2023-03-19T06:35:52.061Z,88.22
2023-03-19T06:36:37.068Z,87.13
2023-03-19T06:37:22.069Z,90.10
2023-03-19T06:38:06.759Z,88.12
2023-03-19T06:38:52.119Z,92.19
2023-03-19T06:39:37.702Z,88.12
2023-03-19T06:40:23.016Z,88.12
2023-03-19T06:41:07.442Z,88.12
2023-03-19T06:41:52.785Z,88.12
2023-03-19T06:42:37.402Z,88.12
2023-03-19T06:43:22.807Z,87.13
2023-03-19T06:44:07.624Z,83.17
2023-03-19T06:44:53.638Z,85.15
2023-03-19T06:45:38.027Z,87.13
2023-03-19T06:46:22.963Z,88.12
2023-03-19T06:47:08.295Z,88.12
2023-03-19T06:47:53.604Z,92.19
2023-03-19T06:48:38.001Z,94.06
2023-03-19T06:49:23.090Z,93.07
2023-03-19T06:50:08.537Z,91.09
2023-03-19T06:50:53.207Z,91.09
2023-03-19T06:51:38.128Z,90.85
2023-03-19T06:52:23.301Z,92.08
2023-03-19T06:53:08.505Z,92.08
2023-03-19T06:53:53.294Z,91.09
2023-03-19T06:54:38.502Z,88.87
2023-03-19T06:55:24.793Z,86.14
2023-03-19T06:56:08.879Z,86.14
2023-03-19T06:56:53.378Z,84.16
2023-03-19T06:57:38.674Z,84.16
2023-03-19T06:58:23.984Z,83.17
2023-03-19T06:59:08.790Z,84.16
2023-03-19T06:59:54.152Z,82.18
2023-03-19T07:00:39.371Z,77.23
2023-03-19T07:01:24.105Z,78.22
2023-03-19T07:02:10.029Z,77.23
2023-03-19T07:02:54.079Z,81.19
2023-03-19T07:03:39.347Z,85.15
2023-03-19T07:04:24.320Z,86.14
2023-03-19T07:05:09.398Z,86.14
2023-03-19T07:05:54.371Z,86.14
2023-03-19T07:06:39.824Z,85.15
2023-03-19T07:07:24.539Z,86.14
2023-03-19T07:08:09.266Z,87.13
2023-03-19T07:08:54.726Z,87.13
2023-03-19T07:09:39.579Z,83.17
2023-03-19T07:10:25.938Z,83.17
2023-03-19T07:11:09.596Z,88.87
2023-03-19T07:11:54.742Z,90.10
2023-03-19T07:12:39.695Z,88.12
2023-03-19T07:13:25.122Z,89.11
2023-03-19T07:14:10.014Z,85.91
2023-03-19T07:14:54.971Z,86.14
2023-03-19T07:15:40.182Z,86.14
2023-03-19T07:16:25.135Z,89.11
2023-03-19T07:17:10.397Z,88.12
2023-03-19T07:17:55.305Z,89.11
2023-03-19T07:18:40.259Z,81.19
2023-03-19T07:19:25.527Z,81.19
2023-03-19T07:20:10.395Z,82.18
2023-03-19T07:20:55.195Z,81.19
2023-03-19T07:21:40.755Z,81.19
2023-03-19T07:22:25.542Z,82.18
2023-03-19T07:23:10.507Z,81.19
2023-03-19T07:23:55.650Z,81.96
2023-03-19T07:24:40.503Z,83.17
2023-03-19T07:25:26.431Z,83.17
2023-03-19T07:26:10.917Z,83.17
2023-03-19T07:26:55.768Z,84.16
2023-03-19T07:27:41.149Z,85.15
2023-03-19T07:28:25.842Z,86.14
2023-03-19T07:29:11.038Z,86.14
2023-03-19T07:29:56.215Z,86.14
2023-03-19T07:30:41.147Z,88.12
2023-03-19T07:31:26.050Z,87.13
2023-03-19T07:32:11.189Z,86.14
2023-03-19T07:32:56.168Z,86.14
2023-03-19T07:33:41.410Z,86.14
2023-03-19T07:34:26.284Z,85.15
2023-03-19T07:35:13.782Z,85.91
2023-03-19T07:35:56.584Z,86.14
2023-03-19T07:36:41.754Z,85.15
2023-03-19T07:37:26.831Z,85.15
2023-03-19T07:38:11.416Z,84.16
2023-03-19T07:38:56.879Z,84.16
2023-03-19T07:39:42.916Z,82.18
2023-03-19T07:40:27.206Z,84.16
2023-03-19T07:41:11.671Z,82.18
2023-03-19T07:41:57.010Z,82.18
2023-03-19T07:42:44.967Z,79.00
2023-03-19T07:43:27.078Z,81.19
2023-03-19T07:44:11.760Z,82.18
2023-03-19T07:44:57.020Z,80.20
2023-03-19T07:45:42.033Z,77.23
2023-03-19T07:46:27.172Z,80.20
2023-03-19T07:47:27.911Z,76.24
2023-03-19T07:47:56.932Z,75.25
2023-03-19T07:48:42.323Z,77.23
2023-03-19T07:49:27.278Z,77.23
2023-03-19T07:50:12.386Z,79.21
2023-03-19T07:50:57.164Z,78.22
2023-03-19T07:51:42.265Z,80.20
2023-03-19T07:52:27.374Z,80.20
2023-03-19T07:53:12.872Z,81.19
2023-03-19T07:53:57.807Z,81.96
2023-03-19T07:54:42.674Z,85.15
2023-03-19T07:55:28.017Z,86.14
2023-03-19T07:56:12.558Z,89.11
2023-03-19T07:56:57.938Z,86.14
2023-03-19T07:57:43.011Z,89.11
2023-03-19T07:58:28.524Z,90.10
2023-03-19T07:59:12.911Z,86.14
2023-03-19T07:59:57.884Z,89.11
2023-03-19T08:00:43.251Z,89.11
2023-03-19T08:01:27.849Z,84.16
2023-03-19T08:02:13.305Z,84.16
2023-03-19T08:02:58.068Z,84.16
2023-03-19T08:03:43.193Z,85.91
2023-03-19T08:04:28.412Z,86.14
2023-03-19T08:05:13.851Z,88.12
2023-03-19T08:05:58.337Z,88.12
2023-03-19T08:06:43.245Z,91.09
2023-03-19T08:07:28.605Z,89.11
2023-03-19T08:08:13.862Z,90.10
2023-03-19T08:08:58.519Z,90.10
2023-03-19T08:09:43.486Z,91.09
2023-03-19T08:10:29.642Z,91.09
2023-03-19T08:11:13.625Z,87.13
2023-03-19T08:11:58.675Z,87.13
2023-03-19T08:12:44.105Z,89.11
2023-03-19T08:13:28.778Z,88.12
2023-03-19T08:14:13.912Z,90.10
2023-03-19T08:14:59.156Z,91.09
2023-03-19T08:15:44.019Z,87.13
2023-03-19T08:16:28.999Z,80.97
2023-03-19T08:17:14.201Z,84.16
2023-03-19T08:17:58.843Z,80.97
2023-03-19T08:18:44.464Z,82.18
2023-03-19T08:19:29.524Z,81.19
2023-03-19T08:20:14.281Z,82.18
2023-03-19T08:20:59.110Z,81.19
2023-03-19T08:21:44.482Z,81.19
2023-03-19T08:22:29.644Z,80.20
2023-03-19T08:23:14.397Z,82.18
2023-03-19T08:23:59.337Z,80.20
2023-03-19T08:24:44.952Z,78.22
2023-03-19T08:25:29.901Z,77.23
2023-03-19T08:26:14.876Z,77.23
2023-03-19T08:26:59.512Z,76.24
2023-03-19T08:27:45.108Z,76.03
2023-03-19T08:28:29.890Z,76.24
2023-03-19T08:29:14.884Z,79.00
2023-03-19T08:30:00.205Z,76.24
2023-03-19T08:30:45.416Z,75.25
2023-03-19T08:31:30.242Z,79.21
2023-03-19T08:32:15.059Z,83.17
2023-03-19T08:33:00.273Z,84.16
2023-03-19T08:33:45.813Z,87.13
2023-03-19T08:34:30.290Z,86.14
2023-03-19T08:35:15.431Z,89.11
2023-03-19T08:36:00.465Z,90.10
2023-03-19T08:36:45.400Z,91.09
2023-03-19T08:37:30.660Z,88.12
2023-03-19T08:38:15.613Z,92.08
2023-03-19T08:39:00.619Z,89.11
2023-03-19T08:39:45.629Z,93.07
2023-03-19T08:40:30.781Z,93.81
2023-03-19T08:41:15.840Z,90.10
2023-03-19T08:42:01.271Z,92.08
2023-03-19T08:42:46.095Z,93.07
2023-03-19T08:43:31.389Z,90.85
2023-03-19T08:44:16.049Z,94.06
2023-03-19T08:45:01.164Z,94.06
2023-03-19T08:45:46.784Z,96.04
2023-03-19T08:46:31.274Z,91.09
2023-03-19T08:47:16.393Z,93.07
2023-03-19T08:48:01.349Z,95.05
2023-03-19T08:48:46.510Z,96.04
2023-03-19T08:49:31.737Z,94.06
2023-03-19T08:50:16.691Z,94.06
2023-03-19T08:51:01.733Z,92.08
2023-03-19T08:51:47.040Z,92.08
2023-03-19T08:52:31.683Z,91.09
2023-03-19T08:53:16.844Z,92.08
2023-03-19T08:54:02.032Z,93.07
2023-03-19T08:54:46.550Z,92.08
2023-03-19T08:55:32.049Z,89.11
2023-03-19T08:56:17.004Z,90.10
2023-03-19T08:57:01.821Z,88.12
2023-03-19T08:57:46.980Z,91.09
2023-03-19T08:58:31.626Z,90.10
2023-03-19T08:59:17.197Z,90.85
2023-03-19T09:00:02.150Z,88.12
2023-03-19T09:00:47.463Z,90.10
2023-03-19T09:01:32.380Z,86.14
2023-03-19T09:02:17.221Z,88.12
2023-03-19T09:03:02.438Z,88.12
2023-03-19T09:03:47.527Z,88.12
2023-03-19T09:04:32.605Z,84.92
2023-03-19T09:05:17.839Z,88.12
2023-03-19T09:06:02.881Z,94.06
2023-03-19T09:06:47.932Z,96.04
2023-03-19T09:07:32.808Z,92.08
2023-03-19T09:08:17.484Z,97.03
2023-03-19T09:09:03.341Z,95.05
2023-03-19T09:09:48.118Z,95.05
2023-03-19T09:10:33.640Z,97.03
2023-03-19T09:11:17.716Z,97.03
2023-03-19T09:12:03.271Z,96.77
2023-03-19T09:12:48.639Z,99.01
2023-03-19T09:13:33.268Z,97.03
2023-03-19T09:14:18.282Z,99.01
2023-03-19T09:15:03.172Z,97.03
2023-03-19T09:15:48.161Z,96.77
2023-03-19T09:16:33.148Z,99.01
2023-03-19T09:17:18.428Z,99.01
2023-03-19T09:18:03.498Z,96.04
2023-03-19T09:18:48.869Z,97.03
2023-03-19T09:19:33.778Z,94.06
2023-03-19T09:20:18.793Z,95.05
2023-03-19T09:21:03.857Z,95.05
2023-03-19T09:21:48.577Z,97.03
2023-03-19T09:22:34.057Z,97.03
2023-03-19T09:23:18.896Z,96.04
2023-03-19T09:24:03.725Z,99.01
2023-03-19T09:24:48.961Z,100.00
2023-03-19T09:25:34.476Z,102.10
2023-03-19T09:26:19.197Z,101.98
2023-03-19T09:27:04.178Z,99.13
2023-03-19T09:27:49.281Z,100.12
2023-03-19T09:28:34.343Z,93.07
2023-03-19T09:29:19.160Z,92.19
2023-03-19T09:30:04.714Z,92.08
2023-03-19T09:30:49.755Z,94.06
2023-03-19T09:31:34.770Z,93.07
2023-03-19T09:32:19.276Z,95.05
2023-03-19T09:33:04.709Z,93.07
2023-03-19T09:33:49.892Z,95.05
2023-03-19T09:34:34.751Z,95.05
2023-03-19T09:35:19.934Z,95.05